Meteo Giornale » Osservazioni meteo Italia » Genova-Sestri

ore: 19:50 - Osservazioni Meteo Genova-Sestri
Lat. 44° 25' N Lon. 8° 51' E Alt. 2 metri s.l.m.

sereno Europe/Rome

27 °C

Sereno

Temp. 24 Ore

24 °C

29 °C

Nord

3.7 Km/h

Dew point 21 °C

Umidità 69 %

Visibilità  10 Km

Il sole sorge alle ore 06:30

Il sole tramonta alle ore 20:26

Data e Ora Cielo e Fenomeni T °C DP °C Um. % Pres. hPa Vis. km Vento km/h
Oggi h: 19:50 sereno Sereno 27 21 69 1014 10 N 3.7
Oggi h: 19:20 sereno Sereno 27 21 69 1014 10 N 5.5
Oggi h: 18:50 sereno Sereno 27 22 74 1014 10 S 7.4
Oggi h: 18:20 sereno Sereno 27 21 69 1014 10 N 5.5
Oggi h: 17:50 sereno Sereno 27 22 74 1015 10 SO 7.4
Oggi h: 17:20 sereno Sereno 28 21 65 1015 10 S 7.4
Oggi h: 16:50 sereno Sereno 28 21 65 1015 10 S 7.4
Oggi h: 16:20 sereno Sereno 28 21 65 1016 10 S 7.4
Oggi h: 15:50 sereno Sereno 29 20 58 1016 10 S 7.4
Oggi h: 15:20 sereno Sereno 29 20 58 1016 10 S 7.4
Oggi h: 14:50 sereno Sereno 28 20 61 1016 10 S 7.4
Oggi h: 14:20 sereno Sereno 29 20 58 1016 10 S/SE 9.3
Oggi h: 13:50 sereno Sereno 29 19 54 1016 10 S/SE 7.4
Oggi h: 13:20 sereno Sereno 28 22 69 1017 10 S/SE 9.3
Oggi h: 12:50 sereno Sereno 28 22 69 1017 10 S/SE 11.1
Oggi h: 12:20 sereno Sereno 28 21 65 1017 10 N 5.5
Oggi h: 11:50 sereno Sereno 28 22 69 1017 10 S 7.4
Oggi h: 11:20 sereno Sereno 28 21 65 1017 10 N 5.5
Oggi h: 10:50 sereno Sereno 28 18 54 1017 10 N 5.5
Oggi h: 10:20 sereno Sereno 28 18 54 1017 10 S/SO 7.4
Oggi h: 09:50 sereno Sereno 28 18 54 1017 10 N 3.7
Oggi h: 09:20 sereno Sereno 28 18 54 1017 10 N 3.7
Oggi h: 08:50 sereno Sereno 27 17 54 1017 10 N 3.7
Oggi h: 08:20 sereno Sereno 26 16 54 1017 10 N 1.8
Oggi h: 07:50 sereno Sereno 25 16 57 1017 10 N 5.5
Oggi h: 07:20 sereno Sereno 25 16 57 1016 10 N 3.7
Oggi h: 06:50 sereno Sereno 24 16 60 1016 10 N 5.5
Oggi h: 06:20 sereno Sereno 25 16 57 1016 10 N/NE 7.4
Oggi h: 05:50 sereno Sereno 25 16 57 1016 10 N/NE 7.4
Oggi h: 05:20 sereno Sereno 25 16 57 1016 10 N/NE 7.4
Oggi h: 04:50 sereno Sereno 25 15 53 1016 10 N 3.7
Oggi h: 04:20 sereno Sereno 26 2 20 1016 10 N 7.4
Oggi h: 03:50 sereno Sereno 26 16 54 1016 10 N/NE 7.4
Oggi h: 03:20 sereno Sereno 26 17 57 1016 10 N 3.7
Oggi h: 02:50 sereno Sereno 26 17 57 1016 10 N/NO 7.4
Oggi h: 02:20 sereno Sereno 26 16 54 1016 10 N/NO 7.4
Oggi h: 01:50 sereno Sereno 26 16 54 1016 10 N/NE 7.4
Oggi h: 01:20 sereno Sereno 26 16 54 1016 10 N/NE 11.1
Oggi h: 00:50 sereno Sereno 26 16 54 1016 10 N/NE 11.1
Oggi h: 00:20 sereno Sereno 26 16 54 1016 10 N 5.5
Ieri h: 23:50 sereno Sereno 26 19 65 1016 10 N 3.7
Ieri h: 23:20 sereno Sereno 27 17 54 1016 10 N 5.5
Ieri h: 22:50 sereno Sereno 27 16 50 1016 10 N 5.5
Ieri h: 22:20 sereno Sereno 27 16 50 1016 10 N 3.7
Ieri h: 21:50 sereno Sereno 28 16 48 1016 10 N/NE 7.4
Ieri h: 21:20 sereno Sereno 26 19 65 1016 10 N 3.7
Ieri h: 20:50 sereno Sereno 27 20 65 1016 10 N 0